Time;durP1;ratioP1;P1;durP2;ratioP2;P2;SDS_P1;SDS_P2;PMS_P1;PMS_P2;Temp;Humidity;BMP_temperature;BMP_pressure;BME280_temperature;BME280_humidity;BME280_pressure;Samples;Min_cycle;Max_cycle;Signal;HPM_P1;HPM_P2
2023/05/13 00:01:21;;;;;;;14.60;8.10;;;;;;;10.97;71.69;98942.83;104590;1274;98618;-66
2023/05/13 00:03:48;;;;;;;15.40;8.20;;;;;;;11.06;71.43;98942.64;104485;1262;99141;-68
2023/05/13 00:06:15;;;;;;;14.70;8.30;;;;;;;11.11;71.62;98941.21;104775;1263;98038;-66
2023/05/13 00:08:42;;;;;;;12.50;7.90;;;;;;;11.12;71.76;98937.02;104792;1263;98070;-65
2023/05/13 00:11:09;;;;;;;11.70;8.30;;;;;;;11.10;71.98;98934.05;104577;1267;98755;-65
2023/05/13 00:13:36;;;;;;;12.10;8.20;;;;;;;11.07;72.18;98935.77;104711;1262;99369;-64
2023/05/13 00:16:03;;;;;;;13.50;8.70;;;;;;;11.05;72.31;98936.19;104453;1263;98017;-66
2023/05/13 00:18:31;;;;;;;13.20;9.20;;;;;;;10.98;72.27;98934.38;104866;1262;97898;-67
2023/05/13 00:20:58;;;;;;;15.40;9.30;;;;;;;10.91;72.41;98933.00;104669;1264;97958;-67
2023/05/13 00:23:25;;;;;;;14.30;8.80;;;;;;;10.92;72.77;98935.56;104822;1271;97903;-66
2023/05/13 00:25:52;;;;;;;12.60;8.20;;;;;;;10.91;72.41;98937.09;104802;1262;98010;-68
2023/05/13 00:28:20;;;;;;;17.60;10.40;;;;;;;10.88;72.49;98937.78;104760;1262;98839;-69
2023/05/13 00:30:48;;;;;;;13.80;9.50;;;;;;;10.87;72.70;98937.80;104856;1263;97930;-65
2023/05/13 00:33:15;;;;;;;14.10;9.10;;;;;;;10.86;72.92;98937.28;104706;1263;99163;-65
2023/05/13 00:35:42;;;;;;;13.70;9.40;;;;;;;10.88;73.01;98931.50;104824;1275;98099;-65
2023/05/13 00:38:11;;;;;;;14.50;9.60;;;;;;;10.90;73.59;98935.21;104819;1260;99121;-65
2023/05/13 00:40:43;;;;;;;13.70;9.60;;;;;;;10.90;73.43;98933.67;104662;1269;97958;-66
2023/05/13 00:43:10;;;;;;;15.20;9.70;;;;;;;10.92;73.41;98935.40;104571;1267;98338;-65
2023/05/13 00:45:37;;;;;;;16.20;10.50;;;;;;;10.93;73.63;98941.11;104479;1260;97919;-66
2023/05/13 00:48:06;;;;;;;27.10;15.50;;;;;;;10.92;73.64;98942.79;104687;1262;98593;-65
2023/05/13 00:50:33;;;;;;;20.70;12.80;;;;;;;10.90;74.19;98943.60;104326;1265;107547;-65
2023/05/13 00:53:02;;;;;;;16.10;10.40;;;;;;;10.85;74.68;98948.27;104621;1259;99086;-65
2023/05/13 00:55:29;;;;;;;15.60;9.70;;;;;;;10.81;74.79;98945.48;104775;1263;97947;-65
2023/05/13 00:57:56;;;;;;;12.70;9.30;;;;;;;10.78;74.79;98944.08;104596;1262;97941;-66
2023/05/13 01:00:23;;;;;;;14.60;9.60;;;;;;;10.67;75.56;98951.77;104724;1262;97941;-64
2023/05/13 01:03:05;;;;;;;18.60;9.30;;;;;;;10.56;75.26;98950.58;104565;1262;99221;-66
2023/05/13 01:06:07;;;;;;;15.20;10.40;;;;;;;10.49;75.88;98955.77;104597;1266;97928;-65
2023/05/13 01:08:57;;;;;;;30.10;18.90;;;;;;;10.41;76.22;98954.74;104470;1260;98412;-65
2023/05/13 01:11:28;;;;;;;21.30;14.50;;;;;;;10.35;76.70;98957.60;104474;1282;111653;-65
2023/05/13 01:14:04;;;;;;;24.50;15.60;;;;;;;10.28;76.86;98961.73;104411;1278;98269;-66
2023/05/13 01:16:47;;;;;;;21.20;13.40;;;;;;;10.23;76.79;98959.75;104446;1283;108695;-65
2023/05/13 01:19:40;;;;;;;16.30;9.70;;;;;;;10.32;76.28;98958.17;104235;1275;97944;-65
2023/05/13 01:22:07;;;;;;;30.50;14.00;;;;;;;10.43;76.09;98963.42;104516;1268;99209;-66
2023/05/13 01:24:35;;;;;;;28.10;15.90;;;;;;;10.49;76.24;98963.48;104536;1262;98078;-69
2023/05/13 01:27:02;;;;;;;21.00;11.80;;;;;;;10.48;76.30;98965.14;104769;1262;97955;-70
2023/05/13 01:29:29;;;;;;;20.00;10.40;;;;;;;10.36;77.17;98970.49;104565;1262;98627;-68
2023/05/13 01:31:59;;;;;;;17.30;10.60;;;;;;;10.28;77.10;98971.54;104493;1262;99242;-69
2023/05/13 01:34:27;;;;;;;18.30;9.70;;;;;;;10.25;76.93;98968.53;104213;1260;161533;-69
2023/05/13 01:36:55;;;;;;;19.10;11.10;;;;;;;10.26;76.97;98968.26;104695;1265;112314;-65
2023/05/13 01:39:23;;;;;;;15.90;10.60;;;;;;;10.28;76.79;98969.95;104636;1269;98780;-67
2023/05/13 01:41:50;;;;;;;16.90;10.80;;;;;;;10.30;76.79;98965.98;104643;1263;108557;-71
2023/05/13 01:44:17;;;;;;;14.60;9.80;;;;;;;10.29;77.16;98967.59;104518;1264;97963;-66
2023/05/13 01:46:45;;;;;;;14.50;9.70;;;;;;;10.24;77.44;98970.52;104493;1276;97903;-66
2023/05/13 01:49:13;;;;;;;14.50;9.40;;;;;;;10.24;77.65;98971.52;104526;1268;110027;-67
2023/05/13 01:51:40;;;;;;;14.20;10.00;;;;;;;10.28;77.82;98970.61;104442;1267;99405;-69
2023/05/13 01:54:07;;;;;;;14.60;9.70;;;;;;;10.34;77.94;98968.41;104547;1265;99368;-67
2023/05/13 01:56:34;;;;;;;15.60;9.60;;;;;;;10.36;77.73;98966.46;104521;1278;97928;-69
2023/05/13 01:59:01;;;;;;;15.00;9.40;;;;;;;10.33;77.92;98966.95;104622;1266;98079;-66
2023/05/13 02:01:28;;;;;;;15.50;9.20;;;;;;;10.28;78.15;98968.86;104685;1262;97918;-66
2023/05/13 02:03:58;;;;;;;13.50;9.20;;;;;;;10.28;78.44;98969.86;104563;1260;97991;-66
2023/05/13 02:06:26;;;;;;;14.00;8.90;;;;;;;10.24;78.64;98969.59;104612;1260;109634;-65
2023/05/13 02:08:53;;;;;;;12.50;8.60;;;;;;;10.14;79.17;98968.25;104620;1273;98047;-66
2023/05/13 02:11:21;;;;;;;13.10;9.00;;;;;;;10.07;79.35;98971.66;104643;1273;98040;-64
2023/05/13 02:13:48;;;;;;;16.20;9.30;;;;;;;10.04;79.31;98969.33;104509;1270;98015;-67
2023/05/13 02:16:19;;;;;;;12.20;9.00;;;;;;;10.07;79.63;98972.06;104612;1260;97953;-65
2023/05/13 02:18:46;;;;;;;13.60;8.60;;;;;;;10.14;79.73;98974.96;104491;1273;108598;-66
2023/05/13 02:21:13;;;;;;;13.50;8.60;;;;;;;10.20;79.63;98975.52;104498;1260;97954;-65
2023/05/13 02:23:40;;;;;;;12.10;8.60;;;;;;;10.23;80.05;98971.09;104603;1263;97931;-67
2023/05/13 02:26:07;;;;;;;14.30;8.80;;;;;;;10.27;79.39;98973.10;104562;1265;97933;-66
2023/05/13 02:28:34;;;;;;;13.70;8.90;;;;;;;10.32;79.26;98967.97;104739;1262;97922;-66
2023/05/13 02:31:01;;;;;;;12.70;9.10;;;;;;;10.35;79.08;98967.85;104612;1263;98393;-65
2023/05/13 02:33:28;;;;;;;15.30;8.70;;;;;;;10.38;79.12;98966.44;104770;1262;97904;-64
2023/05/13 02:35:55;;;;;;;12.90;8.70;;;;;;;10.41;79.04;98967.84;104648;1265;99253;-67
2023/05/13 02:38:22;;;;;;;16.10;8.80;;;;;;;10.35;79.05;98972.63;104827;1271;99099;-66
2023/05/13 02:40:49;;;;;;;14.70;9.40;;;;;;;10.25;79.25;98971.00;104402;1266;108219;-66
2023/05/13 02:43:16;;;;;;;12.60;9.60;;;;;;;10.17;79.63;98973.50;104426;1278;99219;-65
2023/05/13 02:45:45;;;;;;;12.90;9.00;;;;;;;10.09;80.04;98968.64;104546;1266;98008;-65
2023/05/13 02:48:12;;;;;;;13.50;9.10;;;;;;;10.03;80.08;98971.42;104759;1262;111267;-66
2023/05/13 02:50:39;;;;;;;14.00;9.20;;;;;;;10.06;80.14;98972.45;104799;1268;98007;-67
2023/05/13 02:53:06;;;;;;;14.60;9.20;;;;;;;10.15;79.90;98974.96;104686;1263;97925;-69
2023/05/13 02:55:33;;;;;;;13.10;9.20;;;;;;;10.24;79.85;98974.52;104746;1262;98008;-70
2023/05/13 02:58:00;;;;;;;14.50;9.70;;;;;;;10.31;79.87;98973.48;104824;1262;99228;-67
2023/05/13 03:00:27;;;;;;;16.10;10.70;;;;;;;10.33;80.21;98972.79;104558;1260;99233;-66
2023/05/13 03:02:54;;;;;;;15.80;10.10;;;;;;;10.35;80.41;98969.66;104586;1259;98618;-66
2023/05/13 03:05:22;;;;;;;17.90;10.90;;;;;;;10.40;80.29;98971.31;104461;1265;97998;-65
2023/05/13 03:07:48;;;;;;;17.50;10.40;;;;;;;10.42;80.18;98973.63;104681;1265;97942;-68
2023/05/13 03:10:16;;;;;;;17.00;10.50;;;;;;;10.37;80.36;98972.74;104524;1260;97941;-71
2023/05/13 03:12:42;;;;;;;15.60;10.70;;;;;;;10.30;80.68;98970.29;104652;1265;99197;-66
2023/05/13 03:15:10;;;;;;;18.80;11.20;;;;;;;10.25;80.86;98974.08;104462;1272;97961;-66
2023/05/13 03:17:37;;;;;;;16.40;11.50;;;;;;;10.24;80.71;98978.80;104530;1263;98058;-69
2023/05/13 03:20:05;;;;;;;16.80;10.80;;;;;;;10.25;80.50;98978.39;104509;1261;97910;-69
2023/05/13 03:22:32;;;;;;;15.90;11.40;;;;;;;10.30;80.84;98980.23;104647;1260;97948;-66
2023/05/13 03:24:59;;;;;;;16.10;11.50;;;;;;;10.40;81.07;98978.98;104778;1266;97954;-65
2023/05/13 03:27:26;;;;;;;19.60;11.00;;;;;;;10.49;81.10;98978.34;104689;1266;97912;-69
2023/05/13 03:29:53;;;;;;;16.70;11.10;;;;;;;10.58;81.01;98980.48;104874;1262;98860;-69
2023/05/13 03:32:20;;;;;;;16.40;11.60;;;;;;;10.64;81.00;98985.38;104446;1269;111552;-68
2023/05/13 03:34:47;;;;;;;16.20;11.20;;;;;;;10.69;81.06;98985.55;104628;1262;99394;-65
2023/05/13 03:37:14;;;;;;;18.20;12.00;;;;;;;10.71;80.94;98986.45;104603;1266;99324;-67
2023/05/13 03:39:40;;;;;;;17.80;11.70;;;;;;;10.74;80.58;98992.19;104613;1260;97908;-68
2023/05/13 03:42:07;;;;;;;16.40;11.20;;;;;;;10.78;80.73;98992.00;104683;1263;98011;-69
2023/05/13 03:44:34;;;;;;;16.80;11.40;;;;;;;10.80;80.65;98993.94;104576;1279;98479;-69
2023/05/13 03:47:01;;;;;;;18.60;11.70;;;;;;;10.82;80.76;98996.96;104646;1273;98212;-67
2023/05/13 03:49:28;;;;;;;17.60;12.00;;;;;;;10.73;80.71;98996.82;104730;1262;98002;-65
2023/05/13 03:51:55;;;;;;;19.40;11.80;;;;;;;10.61;81.09;99003.15;104709;1263;97948;-68
2023/05/13 03:54:22;;;;;;;19.10;12.00;;;;;;;10.55;80.96;99002.45;104636;1265;98092;-67
2023/05/13 03:56:49;;;;;;;17.60;12.00;;;;;;;10.51;81.20;99009.10;104463;1263;97974;-67
2023/05/13 03:59:16;;;;;;;17.70;12.00;;;;;;;10.54;81.40;99006.58;104519;1263;98018;-66
2023/05/13 04:01:43;;;;;;;17.60;11.50;;;;;;;10.61;81.18;99009.24;104546;1280;99230;-65
2023/05/13 04:04:09;;;;;;;15.90;11.50;;;;;;;10.67;81.00;99014.40;104498;1260;112774;-66
2023/05/13 04:06:36;;;;;;;16.90;11.20;;;;;;;10.70;81.04;99017.66;104476;1276;99120;-69
2023/05/13 04:09:03;;;;;;;17.00;11.40;;;;;;;10.76;81.21;99018.63;104443;1266;97950;-68
2023/05/13 04:11:31;;;;;;;15.40;10.90;;;;;;;10.81;80.90;99019.09;104592;1275;97981;-68
2023/05/13 04:13:58;;;;;;;15.60;10.40;;;;;;;10.84;81.39;99020.88;104553;1262;97938;-66
2023/05/13 04:16:25;;;;;;;19.40;11.10;;;;;;;10.76;81.56;99027.23;104800;1263;97935;-66
2023/05/13 04:18:52;;;;;;;19.10;11.80;;;;;;;10.69;81.71;99025.90;104835;1262;97930;-67
2023/05/13 04:21:19;;;;;;;16.40;11.40;;;;;;;10.58;82.37;99024.90;104667;1267;97855;-65
2023/05/13 04:23:46;;;;;;;18.60;12.50;;;;;;;10.61;82.09;99027.62;104783;1281;99257;-64
2023/05/13 04:26:13;;;;;;;18.40;12.00;;;;;;;10.62;82.14;99027.70;104577;1265;112172;-66
2023/05/13 04:28:40;;;;;;;17.40;11.60;;;;;;;10.56;83.23;99028.55;104624;1266;97998;-67
2023/05/13 04:31:07;;;;;;;17.10;11.10;;;;;;;10.48;84.01;99035.62;104625;1275;98183;-64
2023/05/13 04:33:34;;;;;;;15.50;10.70;;;;;;;10.43;84.03;99037.82;104629;1264;97942;-64
2023/05/13 04:36:01;;;;;;;18.50;12.20;;;;;;;10.41;84.13;99038.56;104586;1274;97899;-66
2023/05/13 04:38:27;;;;;;;18.90;12.10;;;;;;;10.44;84.12;99044.23;104651;1265;97986;-66
2023/05/13 04:40:54;;;;;;;19.10;12.60;;;;;;;10.45;84.32;99043.48;104473;1282;108182;-66
2023/05/13 04:43:21;;;;;;;20.60;12.60;;;;;;;10.52;84.00;99045.92;104571;1272;98028;-65
2023/05/13 04:45:48;;;;;;;18.60;12.40;;;;;;;10.60;83.66;99049.88;104613;1265;98056;-69
2023/05/13 04:48:15;;;;;;;16.90;11.50;;;;;;;10.70;83.91;99051.48;104490;1278;98024;-65
2023/05/13 04:50:46;;;;;;;17.70;11.90;;;;;;;10.69;84.18;99052.04;104658;1265;98514;-65
2023/05/13 04:53:14;;;;;;;18.50;12.00;;;;;;;10.68;84.35;99052.55;104565;1264;108993;-65
2023/05/13 04:55:41;;;;;;;20.30;12.70;;;;;;;10.64;85.02;99052.74;104494;1283;98016;-65
2023/05/13 04:58:08;;;;;;;18.40;12.40;;;;;;;10.62;85.16;99055.42;104525;1265;97949;-66
2023/05/13 05:00:35;;;;;;;13.80;9.20;;;;;;;10.64;85.62;99053.52;104592;1260;97996;-66
2023/05/13 05:03:02;;;;;;;16.30;10.80;;;;;;;10.62;85.72;99056.26;104628;1273;97943;-66
2023/05/13 05:05:29;;;;;;;17.90;11.20;;;;;;;10.60;86.00;99052.08;104661;1260;98847;-66
2023/05/13 05:07:56;;;;;;;15.90;11.50;;;;;;;10.60;85.87;99055.23;104534;1260;97939;-66
2023/05/13 05:10:23;;;;;;;18.00;11.80;;;;;;;10.62;85.84;99055.48;104679;1264;112223;-66
2023/05/13 05:12:49;;;;;;;17.60;11.50;;;;;;;10.66;85.76;99056.83;104716;1259;98015;-66
2023/05/13 05:15:16;;;;;;;19.00;12.50;;;;;;;10.68;85.75;99062.09;104614;1274;98043;-67
2023/05/13 05:17:44;;;;;;;20.10;12.30;;;;;;;10.75;85.34;99065.04;104575;1265;99229;-66
2023/05/13 05:20:12;;;;;;;19.40;12.30;;;;;;;10.81;85.44;99067.34;104598;1263;97938;-65
2023/05/13 05:22:40;;;;;;;17.50;12.60;;;;;;;10.85;85.30;99070.27;104491;1266;98351;-67
2023/05/13 05:25:09;;;;;;;18.30;12.50;;;;;;;10.90;85.03;99068.09;104433;1260;99171;-63
2023/05/13 05:27:35;;;;;;;19.60;12.60;;;;;;;10.95;84.73;99069.52;104614;1260;108618;-66
2023/05/13 05:30:03;;;;;;;14.90;11.00;;;;;;;11.03;84.28;99074.90;104519;1259;98015;-67
2023/05/13 05:32:30;;;;;;;20.70;11.00;;;;;;;11.00;84.23;99073.73;104715;1264;97965;-69
2023/05/13 05:35:00;;;;;;;18.20;11.10;;;;;;;11.02;83.97;99080.13;104604;1259;99118;-66
2023/05/13 05:37:29;;;;;;;16.50;12.30;;;;;;;10.99;84.05;99077.44;104639;1273;99378;-66
2023/05/13 05:39:55;;;;;;;16.60;11.40;;;;;;;10.95;84.61;99080.36;104556;1273;108194;-67
2023/05/13 05:42:22;;;;;;;21.10;13.00;;;;;;;11.00;84.35;99079.08;104543;1264;98716;-69
2023/05/13 05:44:49;;;;;;;21.70;12.30;;;;;;;11.14;84.17;99080.60;104567;1272;97919;-67
2023/05/13 05:47:16;;;;;;;21.10;12.60;;;;;;;11.26;83.64;99079.89;104659;1265;98016;-67
2023/05/13 05:49:43;;;;;;;16.90;11.40;;;;;;;11.36;83.60;99080.36;104684;1273;97996;-68
2023/05/13 05:52:11;;;;;;;19.10;12.70;;;;;;;11.41;83.05;99088.09;104600;1273;98000;-66
2023/05/13 05:54:38;;;;;;;15.60;10.70;;;;;;;11.51;82.90;99090.91;104613;1272;97973;-68
2023/05/13 05:57:05;;;;;;;16.20;11.60;;;;;;;11.54;82.46;99088.92;104680;1265;98617;-69
2023/05/13 05:59:33;;;;;;;17.00;11.20;;;;;;;11.55;82.50;99083.42;104488;1266;97934;-68
2023/05/13 06:02:00;;;;;;;17.30;11.00;;;;;;;11.60;82.68;99082.83;104454;1259;97923;-66
2023/05/13 06:04:27;;;;;;;14.50;9.80;;;;;;;11.64;81.82;99084.54;104583;1278;99250;-67
2023/05/13 06:06:54;;;;;;;16.00;11.80;;;;;;;11.63;81.84;99087.60;104535;1275;98440;-70
2023/05/13 06:09:21;;;;;;;16.90;10.90;;;;;;;11.65;81.05;99091.20;104531;1268;97972;-67
2023/05/13 06:11:48;;;;;;;18.60;10.10;;;;;;;11.65;80.67;99089.35;104627;1265;97901;-71
2023/05/13 06:14:16;;;;;;;16.10;10.50;;;;;;;11.67;80.38;99094.02;104505;1270;97932;-66
2023/05/13 06:16:43;;;;;;;16.20;10.80;;;;;;;11.71;80.28;99098.23;104433;1265;99233;-66
2023/05/13 06:19:13;;;;;;;17.80;10.80;;;;;;;11.75;79.98;99094.65;104570;1265;97915;-67
2023/05/13 06:21:47;;;;;;;17.70;11.10;;;;;;;11.82;79.72;99095.98;104654;1265;111395;-66
2023/05/13 06:24:22;;;;;;;17.80;11.20;;;;;;;11.89;79.36;99094.31;104682;1263;99238;-67
2023/05/13 06:26:57;;;;;;;16.10;9.20;;;;;;;11.98;78.95;99093.73;104651;1274;108118;-66
2023/05/13 06:29:29;;;;;;;18.90;10.30;;;;;;;11.92;78.06;99090.79;104510;1269;98011;-66
2023/05/13 06:32:04;;;;;;;12.50;9.70;;;;;;;11.98;78.34;99092.58;104514;1263;99154;-65
2023/05/13 06:34:35;;;;;;;15.90;10.80;;;;;;;12.13;77.64;99094.70;104622;1263;112087;-65
2023/05/13 06:37:14;;;;;;;15.60;10.20;;;;;;;12.24;76.69;99094.11;104650;1276;99281;-65
2023/05/13 06:39:45;;;;;;;12.70;8.60;;;;;;;12.29;76.89;99092.60;104671;1266;108617;-65
2023/05/13 06:42:12;;;;;;;12.90;9.90;;;;;;;12.42;76.69;99091.60;104697;1274;98031;-65
2023/05/13 06:44:40;;;;;;;13.30;9.20;;;;;;;12.61;76.49;99091.89;104502;1261;99149;-67
2023/05/13 06:47:10;;;;;;;14.70;9.20;;;;;;;12.87;75.96;99094.48;104507;1266;112327;-68
2023/05/13 06:49:37;;;;;;;14.10;10.50;;;;;;;13.16;75.30;99095.63;104422;1274;99023;-67
2023/05/13 06:52:07;;;;;;;12.60;8.70;;;;;;;13.53;75.31;99093.79;104732;1263;108786;-72
2023/05/13 06:54:34;;;;;;;11.60;9.00;;;;;;;13.85;73.04;99094.58;104733;1282;98028;-67
2023/05/13 06:57:04;;;;;;;12.70;9.00;;;;;;;14.10;72.83;99092.54;104696;1273;97942;-68
2023/05/13 06:59:31;;;;;;;15.90;10.10;;;;;;;14.26;71.07;99089.81;104620;1264;112223;-67
2023/05/13 07:01:58;;;;;;;16.30;10.00;;;;;;;14.27;71.37;99087.34;104761;1265;97920;-67
2023/05/13 07:04:28;;;;;;;12.50;9.00;;;;;;;14.57;71.35;99083.52;104673;1263;99247;-67
2023/05/13 07:06:56;;;;;;;12.10;9.40;;;;;;;14.75;68.26;99084.76;104597;1269;99324;-68
2023/05/13 07:09:23;;;;;;;10.80;8.90;;;;;;;14.85;68.49;99077.27;104667;1273;98233;-67
2023/05/13 07:11:50;;;;;;;11.30;8.50;;;;;;;15.09;68.08;99077.20;104579;1273;97986;-66
2023/05/13 07:14:18;;;;;;;11.10;7.60;;;;;;;15.43;67.77;99076.10;104718;1273;97929;-67
2023/05/13 07:16:45;;;;;;;12.20;8.60;;;;;;;15.74;66.41;99072.90;104528;1264;108554;-66
2023/05/13 07:19:12;;;;;;;9.40;6.10;;;;;;;16.07;66.09;99070.57;104794;1265;97932;-67
2023/05/13 07:21:40;;;;;;;9.80;6.90;;;;;;;16.26;63.48;99069.34;104727;1264;97923;-68
2023/05/13 07:24:07;;;;;;;11.00;6.00;;;;;;;16.37;62.44;99065.41;104560;1264;97929;-67
2023/05/13 07:26:34;;;;;;;4.90;3.10;;;;;;;16.46;57.49;99062.80;104429;1263;98297;-68
2023/05/13 07:29:02;;;;;;;5.40;3.50;;;;;;;16.55;55.25;99062.79;104646;1263;97944;-69
2023/05/13 07:31:29;;;;;;;8.90;3.90;;;;;;;16.58;53.34;99059.64;104552;1260;97968;-65
2023/05/13 07:33:56;;;;;;;6.00;3.90;;;;;;;16.85;53.88;99059.46;104727;1274;99332;-66
2023/05/13 07:36:23;;;;;;;6.50;3.70;;;;;;;17.02;51.86;99053.91;104525;1263;99231;-65
2023/05/13 07:38:50;;;;;;;5.00;3.30;;;;;;;17.29;50.72;99061.08;104497;1265;98837;-67
2023/05/13 07:41:17;;;;;;;5.50;3.60;;;;;;;17.50;51.10;99060.33;104440;1273;98341;-65
2023/05/13 07:43:44;;;;;;;4.20;3.10;;;;;;;17.74;49.25;99060.23;104534;1265;97993;-67
2023/05/13 07:46:11;;;;;;;5.50;3.10;;;;;;;17.78;48.24;99059.08;104616;1273;97902;-65
2023/05/13 07:48:38;;;;;;;3.50;3.00;;;;;;;17.90;46.59;99059.71;104492;1260;99672;-66
2023/05/13 07:51:05;;;;;;;5.60;3.30;;;;;;;17.92;46.88;99055.42;104659;1273;97914;-67
2023/05/13 07:53:34;;;;;;;7.20;3.40;;;;;;;18.05;47.75;99056.02;104561;1265;98024;-72
2023/05/13 18:33:51;;;;;;;5.50;3.70;;;;;;;15.25;47.59;99012.60;102710;1295;647527;-70
2023/05/13 18:36:19;;;;;;;8.20;5.00;;;;;;;15.13;47.90;99021.36;103922;1267;475102;-66
2023/05/13 18:38:46;;;;;;;6.10;4.40;;;;;;;15.04;47.90;99025.21;104569;1264;94290;-65
2023/05/13 18:41:15;;;;;;;6.10;3.60;;;;;;;14.95;48.24;99026.61;104551;1277;94379;-66
2023/05/13 18:43:42;;;;;;;7.40;3.60;;;;;;;14.87;48.63;99027.92;104500;1264;98887;-65
2023/05/13 18:46:09;;;;;;;4.80;3.40;;;;;;;14.78;48.72;99030.26;104447;1277;94385;-65
2023/05/13 18:48:36;;;;;;;5.20;3.90;;;;;;;14.70;48.84;99033.39;104514;1270;94375;-65
2023/05/13 18:51:03;;;;;;;6.60;4.00;;;;;;;14.65;48.98;99035.31;104506;1271;94652;-66
2023/05/13 18:53:30;;;;;;;6.50;3.30;;;;;;;14.60;49.08;99034.33;104439;1271;94276;-65
2023/05/13 18:55:57;;;;;;;6.70;3.90;;;;;;;14.57;49.37;99036.25;104462;1269;94276;-65
2023/05/13 18:58:25;;;;;;;5.40;4.00;;;;;;;14.49;49.54;99040.81;104478;1268;95299;-64
2023/05/13 19:00:53;;;;;;;4.90;3.10;;;;;;;14.41;49.63;99045.48;104438;1267;95284;-65
2023/05/13 19:03:20;;;;;;;6.40;4.20;;;;;;;14.33;49.99;99043.15;104487;1270;95320;-65
2023/05/13 19:05:48;;;;;;;5.60;3.90;;;;;;;14.26;50.27;99046.75;104495;1277;95204;-65
2023/05/13 19:08:15;;;;;;;7.20;3.90;;;;;;;14.18;50.66;99043.98;104542;1269;95226;-65
2023/05/13 19:10:42;;;;;;;7.30;4.20;;;;;;;14.09;50.72;99043.81;104501;1280;95255;-65
2023/05/13 19:13:09;;;;;;;5.70;4.20;;;;;;;14.04;50.93;99042.98;104489;1281;95202;-65
2023/05/13 19:15:37;;;;;;;8.10;4.00;;;;;;;13.98;50.81;99045.80;104481;1268;95992;-65
2023/05/13 19:18:04;;;;;;;6.30;4.00;;;;;;;13.94;51.09;99047.43;104471;1270;95969;-65
2023/05/13 19:20:31;;;;;;;7.60;3.90;;;;;;;13.86;51.40;99049.67;104334;1278;95252;-65
2023/05/13 19:22:58;;;;;;;7.70;3.80;;;;;;;13.77;51.82;99052.13;104477;1266;95215;-66
2023/05/13 19:25:25;;;;;;;6.20;3.90;;;;;;;13.69;52.00;99052.48;104450;1270;96008;-65
2023/05/13 19:27:52;;;;;;;5.30;3.70;;;;;;;13.59;52.29;99055.13;104424;1264;95275;-64
2023/05/13 19:30:20;;;;;;;6.10;3.90;;;;;;;13.51;52.35;99052.82;104161;1277;96342;-64
2023/05/13 19:32:47;;;;;;;7.70;4.30;;;;;;;13.45;52.61;99053.44;104225;1265;95308;-65
2023/05/13 19:35:15;;;;;;;7.10;3.80;;;;;;;13.37;52.71;99051.80;104168;1267;96101;-64
2023/05/13 19:37:42;;;;;;;5.30;3.80;;;;;;;13.31;52.89;99049.67;104236;1277;95237;-64
2023/05/13 19:40:10;;;;;;;5.90;3.50;;;;;;;13.25;53.00;99052.10;104170;1280;96106;-64
2023/05/13 19:42:37;;;;;;;5.40;3.60;;;;;;;13.19;52.92;99052.77;104252;1279;95847;-65
2023/05/13 19:45:05;;;;;;;5.80;3.90;;;;;;;13.15;52.99;99057.97;104454;1269;95716;-65
2023/05/13 19:47:33;;;;;;;5.60;3.50;;;;;;;13.11;53.02;99058.19;104449;1269;95262;-65
2023/05/13 19:50:00;;;;;;;5.90;3.60;;;;;;;13.05;53.37;99054.01;104290;1279;95221;-65
2023/05/13 19:52:27;;;;;;;5.20;3.80;;;;;;;12.98;53.32;99054.11;104219;1267;95182;-66
2023/05/13 19:54:54;;;;;;;6.70;3.80;;;;;;;12.94;53.27;99053.55;104093;1267;95319;-66
2023/05/13 19:57:21;;;;;;;6.80;4.10;;;;;;;12.91;53.35;99049.09;104314;1270;95249;-63
2023/05/13 19:59:48;;;;;;;4.90;3.50;;;;;;;12.86;53.29;99049.79;104455;1270;96017;-66
2023/05/13 20:02:15;;;;;;;6.90;3.60;;;;;;;12.84;53.48;99048.30;104670;1266;95314;-65
2023/05/13 20:04:43;;;;;;;5.00;3.60;;;;;;;12.78;53.49;99043.69;104512;1267;95172;-65
2023/05/13 20:07:10;;;;;;;8.20;5.20;;;;;;;12.74;53.63;99045.71;104390;1267;95206;-65
2023/05/13 20:09:37;;;;;;;6.80;4.00;;;;;;;12.71;53.89;99041.30;104357;1269;95335;-65
2023/05/13 20:12:04;;;;;;;9.30;4.20;;;;;;;12.66;54.01;99039.45;104492;1266;95243;-66
2023/05/13 20:14:45;;;;;;;8.60;5.00;;;;;;;12.63;54.32;99043.15;104393;1270;109640;-64
2023/05/13 20:17:17;;;;;;;6.20;4.90;;;;;;;12.58;54.07;99042.26;104150;1283;98206;-65
2023/05/13 20:19:48;;;;;;;8.10;5.10;;;;;;;12.50;54.59;99040.13;104248;1270;107610;-65
2023/05/13 20:22:19;;;;;;;6.00;5.00;;;;;;;12.45;54.43;99039.75;104358;1279;95791;-66
2023/05/13 20:24:50;;;;;;;8.60;5.70;;;;;;;12.41;54.67;99038.75;104285;1265;95164;-64
2023/05/13 20:27:18;;;;;;;7.60;5.50;;;;;;;12.34;55.11;99039.29;104188;1270;109495;-65
2023/05/13 20:29:47;;;;;;;9.80;5.40;;;;;;;12.26;55.20;99036.46;104292;1267;96116;-65
2023/05/13 20:32:23;;;;;;;7.80;5.30;;;;;;;12.22;55.14;99037.02;104410;1277;107574;-66
2023/05/13 20:34:51;;;;;;;10.20;5.00;;;;;;;12.20;55.20;99034.83;104639;1275;95278;-65
2023/05/13 20:37:22;;;;;;;10.30;5.80;;;;;;;12.16;55.47;99034.34;104714;1260;96235;-64
2023/05/13 20:39:50;;;;;;;9.10;5.50;;;;;;;12.13;55.59;99033.94;104742;1263;109586;-65
2023/05/13 20:42:17;;;;;;;10.10;6.20;;;;;;;12.09;55.89;99032.07;104883;1263;95707;-65
2023/05/13 20:44:45;;;;;;;9.60;6.60;;;;;;;12.02;56.18;99031.02;104798;1263;96129;-65
2023/05/13 20:47:14;;;;;;;10.40;6.40;;;;;;;11.99;56.30;99031.00;104693;1264;95204;-64
2023/05/13 20:49:42;;;;;;;8.10;5.80;;;;;;;11.94;56.49;99030.55;104850;1262;95192;-65
2023/05/13 20:52:13;;;;;;;8.20;5.90;;;;;;;11.86;57.10;99035.69;104757;1261;108468;-65
2023/05/13 20:54:44;;;;;;;9.60;5.60;;;;;;;11.80;57.14;99037.52;104772;1264;99128;-65
2023/05/13 20:57:11;;;;;;;9.40;5.40;;;;;;;11.75;57.09;99036.40;104829;1261;95224;-65
2023/05/13 20:59:38;;;;;;;9.50;6.00;;;;;;;11.67;57.51;99034.51;104795;1260;96111;-64
2023/05/13 21:02:06;;;;;;;8.60;5.90;;;;;;;11.61;57.63;99031.03;104796;1263;96101;-65
2023/05/13 21:04:34;;;;;;;10.90;6.50;;;;;;;11.53;57.72;99031.75;104862;1263;95317;-65
2023/05/13 21:07:05;;;;;;;9.40;6.10;;;;;;;11.51;57.61;99030.53;104551;1260;99121;-65
2023/05/13 21:09:32;;;;;;;9.90;6.60;;;;;;;11.51;57.84;99032.73;104725;1264;108532;-64
2023/05/13 21:12:00;;;;;;;12.00;6.80;;;;;;;11.46;58.09;99030.02;104604;1270;95269;-63
2023/05/13 21:14:27;;;;;;;12.70;7.50;;;;;;;11.40;58.09;99028.61;104811;1263;95254;-64
2023/05/13 21:16:54;;;;;;;12.70;7.80;;;;;;;11.36;58.36;99030.89;104503;1263;95207;-65
2023/05/13 21:19:23;;;;;;;9.40;7.00;;;;;;;11.31;58.64;99028.37;104555;1264;95202;-64
2023/05/13 21:21:50;;;;;;;14.20;6.90;;;;;;;11.28;58.67;99024.86;104410;1270;107628;-64
2023/05/13 21:24:18;;;;;;;11.30;6.60;;;;;;;11.23;58.91;99031.23;104842;1264;95192;-64
2023/05/13 21:26:46;;;;;;;12.50;7.00;;;;;;;11.14;59.41;99029.02;104810;1262;96406;-64
2023/05/13 21:29:13;;;;;;;9.90;6.70;;;;;;;11.07;59.83;99035.15;104785;1263;109662;-63
2023/05/13 21:31:43;;;;;;;18.40;7.40;;;;;;;11.05;59.73;99031.74;104630;1269;98178;-64
2023/05/13 21:34:09;;;;;;;12.00;7.00;;;;;;;11.00;59.82;99031.84;104893;1262;95182;-65
2023/05/13 21:36:38;;;;;;;12.10;6.00;;;;;;;10.97;60.10;99032.41;104804;1263;96120;-64
2023/05/13 21:39:05;;;;;;;13.20;7.20;;;;;;;10.91;60.04;99030.60;104855;1263;95816;-64
2023/05/13 21:41:33;;;;;;;8.50;6.10;;;;;;;10.86;60.33;99032.58;104715;1262;109948;-64
2023/05/13 21:43:59;;;;;;;9.80;6.70;;;;;;;10.82;60.68;99034.45;104551;1263;95174;-64
2023/05/13 21:46:26;;;;;;;9.00;6.50;;;;;;;10.80;60.86;99038.29;104745;1271;95259;-63
2023/05/13 21:48:54;;;;;;;10.80;6.30;;;;;;;10.74;60.97;99033.36;104615;1258;95209;-64
2023/05/13 21:51:21;;;;;;;8.80;6.10;;;;;;;10.67;61.03;99032.13;104670;1258;95138;-63
2023/05/13 21:53:48;;;;;;;10.60;6.90;;;;;;;10.62;61.34;99033.77;104743;1258;95272;-65
2023/05/13 21:56:15;;;;;;;11.30;6.90;;;;;;;10.58;61.33;99031.45;104731;1257;95285;-64